createdAt,value
2022-09-26T00:00:22.679Z,58.54
2022-09-26T00:05:24.340Z,58.70
2022-09-26T00:10:25.991Z,59.06
2022-09-26T00:15:27.588Z,59.14
2022-09-26T00:20:29.149Z,59.58
2022-09-26T00:25:30.835Z,59.24
2022-09-26T00:30:32.525Z,60.26
2022-09-26T00:35:34.289Z,60.18
2022-09-26T00:40:36.040Z,60.82
2022-09-26T00:45:37.743Z,60.61
2022-09-26T00:50:48.634Z,59.93
2022-09-26T00:55:55.995Z,60.85
2022-09-26T01:01:00.925Z,61.69
2022-09-26T01:06:03.183Z,61.61
2022-09-26T01:11:05.792Z,61.07
2022-09-26T01:16:08.981Z,60.45
2022-09-26T01:21:42.964Z,60.84
2022-09-26T01:27:11.897Z,61.46
2022-09-26T01:32:54.362Z,62.72
2022-09-26T01:38:48.075Z,63.76
2022-09-26T01:44:01.407Z,63.58
2022-09-26T01:49:18.455Z,64.09
2022-09-26T01:54:27.005Z,64.63
2022-09-26T01:59:34.687Z,64.17
2022-09-26T02:04:41.935Z,62.13
2022-09-26T02:09:48.991Z,62.08
2022-09-26T02:14:54.472Z,69.30
2022-09-26T02:20:03.319Z,71.90
2022-09-26T02:25:05.423Z,73.07
2022-09-26T02:30:07.768Z,73.02
2022-09-26T02:35:30.123Z,72.49
2022-09-26T02:40:51.751Z,72.49
2022-09-26T02:46:24.472Z,72.52
2022-09-26T02:51:38.318Z,72.31
2022-09-26T02:57:10.395Z,72.85
2022-09-26T03:02:19.741Z,73.07
2022-09-26T03:07:51.840Z,72.08
2022-09-26T03:12:55.159Z,72.03
2022-09-26T03:17:59.287Z,72.00
2022-09-26T03:23:03.146Z,72.11
2022-09-26T03:28:06.103Z,72.06
2022-09-26T03:33:09.106Z,72.45
2022-09-26T03:38:14.283Z,73.73
2022-09-26T03:43:24.316Z,75.16
2022-09-26T03:48:27.754Z,76.35
2022-09-26T03:53:32.579Z,78.43
2022-09-26T03:58:36.371Z,80.52
2022-09-26T04:03:49.945Z,82.52
2022-09-26T04:08:53.391Z,83.11
2022-09-26T04:13:59.569Z,85.13
2022-09-26T04:19:09.409Z,86.01
2022-09-26T04:24:16.279Z,86.31
2022-09-26T04:29:18.083Z,87.32
2022-09-26T04:34:45.947Z,86.07
2022-09-26T04:39:48.472Z,86.57
2022-09-26T04:44:50.163Z,86.58
2022-09-26T04:49:52.068Z,86.77
2022-09-26T04:54:53.782Z,86.02
2022-09-26T04:59:55.786Z,85.87
2022-09-26T05:05:00.666Z,86.09
2022-09-26T05:10:02.822Z,85.59
2022-09-26T05:15:10.430Z,86.76
2022-09-26T05:20:12.943Z,87.21
2022-09-26T05:25:39.796Z,87.14
2022-09-26T05:30:41.632Z,87.34
2022-09-26T05:35:44.043Z,86.52
2022-09-26T05:40:58.131Z,86.07
2022-09-26T05:46:05.295Z,85.81
2022-09-26T05:51:14.808Z,85.35
2022-09-26T05:56:19.768Z,85.08
2022-09-26T06:01:40.265Z,85.51
2022-09-26T06:06:56.081Z,85.90
2022-09-26T06:11:57.816Z,85.86
2022-09-26T06:16:59.733Z,85.82
2022-09-26T06:22:01.506Z,86.37
2022-09-26T06:27:04.511Z,86.62
2022-09-26T06:32:06.221Z,87.14
2022-09-26T06:37:43.360Z,87.03
2022-09-26T06:42:46.805Z,86.68
2022-09-26T06:48:02.710Z,86.69
2022-09-26T06:53:09.221Z,86.50
2022-09-26T06:58:10.974Z,86.30
2022-09-26T07:03:26.623Z,86.92
2022-09-26T07:09:01.034Z,86.99
2022-09-26T07:14:19.808Z,88.71
2022-09-26T07:19:36.839Z,90.32
2022-09-26T07:24:42.657Z,90.74
2022-09-26T07:30:05.208Z,92.86
2022-09-26T07:35:17.237Z,94.75
2022-09-26T07:40:21.200Z,95.80
2022-09-26T07:45:42.887Z,97.95
2022-09-26T07:50:46.396Z,99.87
2022-09-26T07:56:12.152Z,100.00
2022-09-26T08:01:52.801Z,100.00
2022-09-26T08:07:08.566Z,100.00
2022-09-26T08:12:15.136Z,100.00
2022-09-26T08:17:24.068Z,100.00
2022-09-26T08:22:26.950Z,100.00
2022-09-26T08:27:33.477Z,100.00
2022-09-26T08:32:35.256Z,100.00
2022-09-26T08:37:39.491Z,100.00
2022-09-26T08:43:38.716Z,100.00
2022-09-26T08:49:17.848Z,100.00
2022-09-26T08:54:37.759Z,100.00
2022-09-26T08:59:42.116Z,100.00
2022-09-26T09:04:57.759Z,100.00
2022-09-26T09:10:06.315Z,100.00
2022-09-26T09:15:58.482Z,100.00
2022-09-26T09:21:10.499Z,100.00
2022-09-26T09:32:22.950Z,100.00
2022-09-26T09:37:43.124Z,100.00
2022-09-26T09:43:12.685Z,100.00
2022-09-26T09:48:15.736Z,100.00
2022-09-26T09:53:26.888Z,100.00
2022-09-26T09:58:39.034Z,100.00
2022-09-26T10:04:27.778Z,100.00
2022-09-26T10:09:40.697Z,100.00
2022-09-26T10:15:19.848Z,100.00
2022-09-26T10:20:43.006Z,100.00
2022-09-26T10:25:48.532Z,100.00
2022-09-26T10:30:55.578Z,100.00
2022-09-26T10:36:09.003Z,100.00
2022-09-26T10:41:23.866Z,100.00
2022-09-26T10:46:27.840Z,100.00
2022-09-26T10:51:55.483Z,100.00
2022-09-26T10:56:59.256Z,100.00
2022-09-26T11:02:05.573Z,100.00
2022-09-26T11:07:11.107Z,100.00
2022-09-26T11:12:25.468Z,100.00
2022-09-26T11:17:49.386Z,100.00
2022-09-26T11:23:15.197Z,100.00
2022-09-26T11:28:36.219Z,100.00
2022-09-26T11:34:04.489Z,100.00
2022-09-26T11:39:25.200Z,100.00
2022-09-26T11:44:51.255Z,100.00
2022-09-26T11:50:23.927Z,100.00
2022-09-26T11:56:19.958Z,97.82
2022-09-26T12:02:03.967Z,96.88
2022-09-26T12:07:33.618Z,97.39
2022-09-26T12:12:56.659Z,97.36
2022-09-26T12:18:07.416Z,97.74
2022-09-26T12:23:17.871Z,98.25
2022-09-26T12:28:50.414Z,99.08
2022-09-26T12:34:31.817Z,100.00
2022-09-26T12:39:52.289Z,100.00
2022-09-26T12:45:30.370Z,100.00
2022-09-26T12:50:53.001Z,100.00
2022-09-26T12:56:08.498Z,100.00
2022-09-26T13:01:32.492Z,100.00
2022-09-26T13:07:18.310Z,100.00
2022-09-26T13:12:31.065Z,100.00
2022-09-26T13:17:41.842Z,100.00
2022-09-26T13:22:53.060Z,100.00
2022-09-26T13:28:05.282Z,100.00
2022-09-26T13:33:31.876Z,100.00
2022-09-26T13:38:34.051Z,97.58
2022-09-26T13:43:53.581Z,94.82
2022-09-26T13:49:27.540Z,93.35
2022-09-26T13:54:55.027Z,91.36
2022-09-26T13:59:56.895Z,89.56
2022-09-26T14:05:01.234Z,88.18
2022-09-26T14:10:05.827Z,85.14
2022-09-26T14:15:47.795Z,85.55
2022-09-26T14:21:02.750Z,83.39
2022-09-26T14:26:07.122Z,81.09
2022-09-26T14:31:37.355Z,78.97
2022-09-26T14:36:39.541Z,80.82
2022-09-26T14:41:41.587Z,78.37
2022-09-26T14:46:43.772Z,78.96
2022-09-26T14:51:59.409Z,79.12
2022-09-26T14:57:04.343Z,75.75
2022-09-26T15:02:21.808Z,76.00
2022-09-26T15:07:45.388Z,76.10
2022-09-26T15:13:02.983Z,76.34
2022-09-26T15:18:18.323Z,77.52
2022-09-26T15:23:28.006Z,79.09
2022-09-26T15:28:34.626Z,80.53
2022-09-26T15:33:39.067Z,81.78
2022-09-26T15:38:45.123Z,82.51
2022-09-26T15:43:48.800Z,84.01
2022-09-26T15:48:52.000Z,84.63
2022-09-26T15:53:58.381Z,81.61
2022-09-26T15:59:17.873Z,80.59
2022-09-26T16:04:27.955Z,80.12
2022-09-26T16:09:40.144Z,78.33
2022-09-26T16:14:49.181Z,77.56
2022-09-26T16:19:54.285Z,78.41
2022-09-26T16:25:17.435Z,76.65
2022-09-26T16:30:27.869Z,77.91
2022-09-26T16:35:33.494Z,78.79
2022-09-26T16:40:35.820Z,78.34
2022-09-26T16:45:49.824Z,81.54
2022-09-26T16:51:13.665Z,84.03
2022-09-26T16:56:19.206Z,84.98
2022-09-26T17:01:40.786Z,86.39
2022-09-26T17:06:42.635Z,87.29
2022-09-26T17:11:49.186Z,88.36
2022-09-26T17:16:55.321Z,87.89
2022-09-26T17:21:57.211Z,87.95
2022-09-26T17:27:14.292Z,84.25
2022-09-26T17:32:25.207Z,85.34
2022-09-26T17:37:27.671Z,86.25
2022-09-26T17:42:38.858Z,87.63
2022-09-26T17:47:40.852Z,90.48
2022-09-26T17:52:42.691Z,90.97
2022-09-26T17:57:44.453Z,90.74
2022-09-26T18:02:55.285Z,91.31
2022-09-26T18:08:21.198Z,91.15
2022-09-26T18:13:38.175Z,92.50
2022-09-26T18:18:39.844Z,90.28
2022-09-26T18:23:50.337Z,90.39
2022-09-26T18:28:52.589Z,89.65
2022-09-26T18:33:56.006Z,90.20
2022-09-26T18:38:57.756Z,90.28
2022-09-26T18:44:02.115Z,90.99
2022-09-26T18:49:06.380Z,89.32
2022-09-26T18:54:17.433Z,87.69
2022-09-26T18:59:19.496Z,87.26
2022-09-26T19:04:22.935Z,89.90
2022-09-26T19:09:28.024Z,91.56
2022-09-26T19:14:31.374Z,88.90
2022-09-26T19:19:33.002Z,87.97
2022-09-26T19:24:48.880Z,86.01
2022-09-26T19:29:59.088Z,86.78
2022-09-26T19:35:02.880Z,87.77
2022-09-26T19:40:14.823Z,88.65
2022-09-26T19:45:18.273Z,89.28
2022-09-26T19:50:25.787Z,89.24
2022-09-26T19:55:29.672Z,87.61
2022-09-26T20:00:36.985Z,87.08
2022-09-26T20:05:39.416Z,87.47
2022-09-26T20:10:41.216Z,85.83
2022-09-26T20:15:43.767Z,85.26
2022-09-26T20:20:50.090Z,84.23
2022-09-26T20:25:53.918Z,84.22
2022-09-26T20:30:58.906Z,84.66
2022-09-26T20:36:04.663Z,83.31
2022-09-26T20:41:24.191Z,82.79
2022-09-26T20:46:28.261Z,82.83
2022-09-26T20:51:34.457Z,83.63
2022-09-26T20:56:36.894Z,84.72
2022-09-26T21:01:38.513Z,82.45
2022-09-26T21:06:40.870Z,80.63
2022-09-26T21:11:50.476Z,80.57
2022-09-26T21:16:52.631Z,80.69
2022-09-26T21:21:59.226Z,81.32
2022-09-26T21:27:14.344Z,82.55
2022-09-26T21:32:18.676Z,82.58
2022-09-26T21:37:20.253Z,82.68
2022-09-26T21:42:21.999Z,81.89
2022-09-26T21:47:24.661Z,80.52
2022-09-26T21:52:35.715Z,79.91
2022-09-26T21:57:42.151Z,78.68
2022-09-26T22:02:43.880Z,80.33
2022-09-26T22:07:45.500Z,81.38
2022-09-26T22:12:47.066Z,81.33
2022-09-26T22:17:48.887Z,80.32
2022-09-26T22:22:50.636Z,80.07
2022-09-26T22:27:52.279Z,79.83
2022-09-26T22:32:53.956Z,79.01
2022-09-26T22:37:56.730Z,79.69
2022-09-26T22:42:58.329Z,78.76
2022-09-26T22:48:00.253Z,77.86
2022-09-26T22:53:02.945Z,77.28
2022-09-26T22:58:04.716Z,77.87
2022-09-26T23:03:06.347Z,77.14
2022-09-26T23:08:07.931Z,74.11
2022-09-26T23:13:09.582Z,73.85
2022-09-26T23:18:12.581Z,74.85
2022-09-26T23:23:14.924Z,74.77
2022-09-26T23:28:17.579Z,75.10
2022-09-26T23:33:19.288Z,73.65
2022-09-26T23:38:20.904Z,74.44
2022-09-26T23:43:23.146Z,74.40
2022-09-26T23:48:24.780Z,74.52
2022-09-26T23:53:26.746Z,74.54
2022-09-26T23:58:28.599Z,72.86
